sensor_id;sensor_type;location;lat;lon;timestamp;temperature;humidity
18450;DHT22;9354;50.194;7.690;2024-03-23T00:54:43;8.80;99.90
18450;DHT22;9354;50.194;7.690;2024-03-23T00:57:09;8.90;99.90
18450;DHT22;9354;50.194;7.690;2024-03-23T00:59:37;8.90;99.90
18450;DHT22;9354;50.194;7.690;2024-03-23T01:02:03;8.90;99.90
18450;DHT22;9354;50.194;7.690;2024-03-23T01:04:31;9.00;99.90
18450;DHT22;9354;50.194;7.690;2024-03-23T01:06:57;9.10;99.90
18450;DHT22;9354;50.194;7.690;2024-03-23T01:09:24;9.20;99.90
18450;DHT22;9354;50.194;7.690;2024-03-23T01:11:52;9.20;99.90
18450;DHT22;9354;50.194;7.690;2024-03-23T01:14:20;9.20;99.90
18450;DHT22;9354;50.194;7.690;2024-03-23T01:16:46;9.20;99.90
18450;DHT22;9354;50.194;7.690;2024-03-23T01:19:14;9.20;99.90
18450;DHT22;9354;50.194;7.690;2024-03-23T01:21:40;9.20;99.90
18450;DHT22;9354;50.194;7.690;2024-03-23T01:24:09;9.30;99.90
18450;DHT22;9354;50.194;7.690;2024-03-23T01:26:36;9.40;99.90
18450;DHT22;9354;50.194;7.690;2024-03-23T01:29:05;9.40;99.90
18450;DHT22;9354;50.194;7.690;2024-03-23T01:31:32;9.40;99.90
18450;DHT22;9354;50.194;7.690;2024-03-23T01:33:59;9.40;99.90
18450;DHT22;9354;50.194;7.690;2024-03-23T01:36:25;9.40;99.90
18450;DHT22;9354;50.194;7.690;2024-03-23T01:38:53;9.40;99.90
18450;DHT22;9354;50.194;7.690;2024-03-23T01:41:19;9.40;99.90
18450;DHT22;9354;50.194;7.690;2024-03-23T01:43:47;9.30;99.90
18450;DHT22;9354;50.194;7.690;2024-03-23T01:46:14;9.40;99.90
18450;DHT22;9354;50.194;7.690;2024-03-23T01:48:42;9.40;99.90
18450;DHT22;9354;50.194;7.690;2024-03-23T01:51:09;9.40;99.90
18450;DHT22;9354;50.194;7.690;2024-03-23T01:53:37;9.50;99.90
18450;DHT22;9354;50.194;7.690;2024-03-23T01:56:04;9.60;99.90
18450;DHT22;9354;50.194;7.690;2024-03-23T01:58:32;9.60;99.90
18450;DHT22;9354;50.194;7.690;2024-03-23T02:00:58;9.70;99.90
18450;DHT22;9354;50.194;7.690;2024-03-23T02:03:27;9.70;99.90
18450;DHT22;9354;50.194;7.690;2024-03-23T02:05:54;9.80;99.90
18450;DHT22;9354;50.194;7.690;2024-03-23T02:08:23;9.80;99.90
18450;DHT22;9354;50.194;7.690;2024-03-23T02:10:50;9.80;99.90
18450;DHT22;9354;50.194;7.690;2024-03-23T02:13:18;9.90;99.90
18450;DHT22;9354;50.194;7.690;2024-03-23T02:15:45;9.90;99.90
18450;DHT22;9354;50.194;7.690;2024-03-23T02:18:12;9.90;99.90
18450;DHT22;9354;50.194;7.690;2024-03-23T02:20:40;9.90;99.90
18450;DHT22;9354;50.194;7.690;2024-03-23T02:23:14;9.80;99.90
18450;DHT22;9354;50.194;7.690;2024-03-23T02:25:41;9.80;99.90
18450;DHT22;9354;50.194;7.690;2024-03-23T02:28:08;9.70;99.90
18450;DHT22;9354;50.194;7.690;2024-03-23T02:30:35;9.70;99.90
18450;DHT22;9354;50.194;7.690;2024-03-23T02:33:03;9.40;99.90
18450;DHT22;9354;50.194;7.690;2024-03-23T02:35:29;9.30;99.90
18450;DHT22;9354;50.194;7.690;2024-03-23T02:37:57;9.20;99.90
18450;DHT22;9354;50.194;7.690;2024-03-23T02:40:25;9.00;99.90
18450;DHT22;9354;50.194;7.690;2024-03-23T02:42:52;8.90;99.90
18450;DHT22;9354;50.194;7.690;2024-03-23T02:45:19;8.80;99.90
18450;DHT22;9354;50.194;7.690;2024-03-23T02:47:46;8.70;99.90
18450;DHT22;9354;50.194;7.690;2024-03-23T02:50:13;8.60;99.90
18450;DHT22;9354;50.194;7.690;2024-03-23T02:52:41;8.50;99.90
18450;DHT22;9354;50.194;7.690;2024-03-23T02:55:08;8.40;99.90
18450;DHT22;9354;50.194;7.690;2024-03-23T02:57:37;8.30;99.90
18450;DHT22;9354;50.194;7.690;2024-03-23T03:00:04;8.20;99.90
18450;DHT22;9354;50.194;7.690;2024-03-23T03:02:33;8.20;99.90
18450;DHT22;9354;50.194;7.690;2024-03-23T03:04:59;8.10;99.90
18450;DHT22;9354;50.194;7.690;2024-03-23T03:07:27;8.10;99.90
18450;DHT22;9354;50.194;7.690;2024-03-23T03:09:53;8.00;99.90
18450;DHT22;9354;50.194;7.690;2024-03-23T03:12:20;7.90;99.90
18450;DHT22;9354;50.194;7.690;2024-03-23T03:14:48;7.90;99.90
18450;DHT22;9354;50.194;7.690;2024-03-23T03:17:16;7.90;99.90
18450;DHT22;9354;50.194;7.690;2024-03-23T03:19:42;7.90;99.90
18450;DHT22;9354;50.194;7.690;2024-03-23T03:22:10;7.80;99.90
18450;DHT22;9354;50.194;7.690;2024-03-23T03:24:36;7.70;99.90
18450;DHT22;9354;50.194;7.690;2024-03-23T03:27:03;7.70;99.90
18450;DHT22;9354;50.194;7.690;2024-03-23T03:29:30;7.70;99.90
18450;DHT22;9354;50.194;7.690;2024-03-23T03:32:03;7.60;99.90
18450;DHT22;9354;50.194;7.690;2024-03-23T03:34:30;7.60;99.90
18450;DHT22;9354;50.194;7.690;2024-03-23T03:36:58;7.50;99.90
18450;DHT22;9354;50.194;7.690;2024-03-23T03:39:25;7.40;99.90
18450;DHT22;9354;50.194;7.690;2024-03-23T03:41:53;7.40;99.90
18450;DHT22;9354;50.194;7.690;2024-03-23T03:44:19;7.40;99.90
18450;DHT22;9354;50.194;7.690;2024-03-23T03:46:47;7.40;99.90
18450;DHT22;9354;50.194;7.690;2024-03-23T03:49:14;7.40;99.90
18450;DHT22;9354;50.194;7.690;2024-03-23T03:51:42;7.40;99.90
18450;DHT22;9354;50.194;7.690;2024-03-23T03:54:08;7.30;99.90
18450;DHT22;9354;50.194;7.690;2024-03-23T03:56:35;7.30;99.90
18450;DHT22;9354;50.194;7.690;2024-03-23T03:59:02;7.20;99.90
18450;DHT22;9354;50.194;7.690;2024-03-23T04:01:29;7.20;99.90
18450;DHT22;9354;50.194;7.690;2024-03-23T04:03:56;7.10;99.90
18450;DHT22;9354;50.194;7.690;2024-03-23T04:06:24;7.10;99.90
18450;DHT22;9354;50.194;7.690;2024-03-23T04:08:51;7.10;99.90
18450;DHT22;9354;50.194;7.690;2024-03-23T04:11:18;7.10;99.90
18450;DHT22;9354;50.194;7.690;2024-03-23T04:13:44;7.10;99.90
18450;DHT22;9354;50.194;7.690;2024-03-23T04:16:12;7.10;99.90
18450;DHT22;9354;50.194;7.690;2024-03-23T04:18:38;7.10;99.90
18450;DHT22;9354;50.194;7.690;2024-03-23T04:21:06;7.20;99.90
18450;DHT22;9354;50.194;7.690;2024-03-23T04:23:34;7.20;99.90
18450;DHT22;9354;50.194;7.690;2024-03-23T04:26:05;7.20;99.90
18450;DHT22;9354;50.194;7.690;2024-03-23T04:28:31;7.20;99.90
18450;DHT22;9354;50.194;7.690;2024-03-23T04:31:03;7.10;99.90
18450;DHT22;9354;50.194;7.690;2024-03-23T04:33:29;7.10;99.90
18450;DHT22;9354;50.194;7.690;2024-03-23T04:35:57;7.10;99.90
18450;DHT22;9354;50.194;7.690;2024-03-23T04:38:23;7.00;99.90
18450;DHT22;9354;50.194;7.690;2024-03-23T04:40:55;7.00;99.90
18450;DHT22;9354;50.194;7.690;2024-03-23T04:43:23;6.90;99.90
18450;DHT22;9354;50.194;7.690;2024-03-23T04:45:50;6.80;99.90
18450;DHT22;9354;50.194;7.690;2024-03-23T04:48:20;6.70;99.90
18450;DHT22;9354;50.194;7.690;2024-03-23T04:50:48;6.60;99.90
18450;DHT22;9354;50.194;7.690;2024-03-23T04:53:16;6.50;99.90
18450;DHT22;9354;50.194;7.690;2024-03-23T04:55:44;6.50;99.90
18450;DHT22;9354;50.194;7.690;2024-03-23T04:58:12;6.40;99.90
18450;DHT22;9354;50.194;7.690;2024-03-23T05:00:39;6.40;99.90
18450;DHT22;9354;50.194;7.690;2024-03-23T05:03:06;6.30;99.90
18450;DHT22;9354;50.194;7.690;2024-03-23T05:05:32;6.20;99.90
18450;DHT22;9354;50.194;7.690;2024-03-23T05:08:00;6.10;99.90
18450;DHT22;9354;50.194;7.690;2024-03-23T05:10:26;6.00;99.90
18450;DHT22;9354;50.194;7.690;2024-03-23T05:12:53;5.90;99.90
18450;DHT22;9354;50.194;7.690;2024-03-23T05:15:21;5.90;99.90
18450;DHT22;9354;50.194;7.690;2024-03-23T05:17:49;5.80;99.90
18450;DHT22;9354;50.194;7.690;2024-03-23T05:20:15;5.80;99.90
18450;DHT22;9354;50.194;7.690;2024-03-23T05:22:44;5.80;99.90
18450;DHT22;9354;50.194;7.690;2024-03-23T05:25:10;5.80;99.90
18450;DHT22;9354;50.194;7.690;2024-03-23T05:27:38;5.80;99.90
18450;DHT22;9354;50.194;7.690;2024-03-23T05:30:05;5.80;99.90
18450;DHT22;9354;50.194;7.690;2024-03-23T05:32:34;5.80;99.90
18450;DHT22;9354;50.194;7.690;2024-03-23T05:35:01;5.80;99.90
18450;DHT22;9354;50.194;7.690;2024-03-23T05:37:28;5.80;99.90
18450;DHT22;9354;50.194;7.690;2024-03-23T05:39:57;5.70;99.90
18450;DHT22;9354;50.194;7.690;2024-03-23T05:42:24;5.70;99.90
18450;DHT22;9354;50.194;7.690;2024-03-23T05:44:50;5.70;99.90
18450;DHT22;9354;50.194;7.690;2024-03-23T05:47:18;5.70;99.90
18450;DHT22;9354;50.194;7.690;2024-03-23T05:49:46;5.70;99.90
18450;DHT22;9354;50.194;7.690;2024-03-23T05:52:13;5.70;99.90
18450;DHT22;9354;50.194;7.690;2024-03-23T05:54:41;5.70;99.90
18450;DHT22;9354;50.194;7.690;2024-03-23T05:57:09;5.70;99.90
18450;DHT22;9354;50.194;7.690;2024-03-23T05:59:38;5.70;99.90
18450;DHT22;9354;50.194;7.690;2024-03-23T06:02:04;5.70;99.90
18450;DHT22;9354;50.194;7.690;2024-03-23T06:04:32;5.60;99.90
18450;DHT22;9354;50.194;7.690;2024-03-23T06:06:59;5.60;99.90
18450;DHT22;9354;50.194;7.690;2024-03-23T06:09:27;5.70;99.90
18450;DHT22;9354;50.194;7.690;2024-03-23T06:11:53;5.60;99.90
18450;DHT22;9354;50.194;7.690;2024-03-23T06:14:21;5.70;99.90
18450;DHT22;9354;50.194;7.690;2024-03-23T06:16:47;5.70;99.90
18450;DHT22;9354;50.194;7.690;2024-03-23T06:19:15;5.70;99.90
18450;DHT22;9354;50.194;7.690;2024-03-23T06:21:43;5.70;99.90
18450;DHT22;9354;50.194;7.690;2024-03-23T06:24:12;5.70;99.90
18450;DHT22;9354;50.194;7.690;2024-03-23T06:26:39;5.70;99.90
18450;DHT22;9354;50.194;7.690;2024-03-23T06:29:06;5.70;99.90
18450;DHT22;9354;50.194;7.690;2024-03-23T06:31:33;5.80;99.90
18450;DHT22;9354;50.194;7.690;2024-03-23T06:34:00;5.80;99.90
18450;DHT22;9354;50.194;7.690;2024-03-23T06:36:27;5.90;99.90
18450;DHT22;9354;50.194;7.690;2024-03-23T06:38:56;5.90;99.90
18450;DHT22;9354;50.194;7.690;2024-03-23T06:41:24;5.90;99.90
18450;DHT22;9354;50.194;7.690;2024-03-23T06:43:52;6.00;99.90
18450;DHT22;9354;50.194;7.690;2024-03-23T06:46:18;6.00;99.90
18450;DHT22;9354;50.194;7.690;2024-03-23T06:48:46;6.00;99.90
18450;DHT22;9354;50.194;7.690;2024-03-23T06:51:12;6.10;99.90
18450;DHT22;9354;50.194;7.690;2024-03-23T06:53:39;6.10;99.90
18450;DHT22;9354;50.194;7.690;2024-03-23T06:56:06;6.10;99.90
18450;DHT22;9354;50.194;7.690;2024-03-23T06:58:35;6.10;99.90
18450;DHT22;9354;50.194;7.690;2024-03-23T07:01:01;6.20;99.90
18450;DHT22;9354;50.194;7.690;2024-03-23T07:03:28;6.20;99.90
18450;DHT22;9354;50.194;7.690;2024-03-23T07:05:58;6.20;99.90
18450;DHT22;9354;50.194;7.690;2024-03-23T07:08:25;6.20;99.90
18450;DHT22;9354;50.194;7.690;2024-03-23T07:10:52;6.30;99.90
18450;DHT22;9354;50.194;7.690;2024-03-23T07:13:19;6.30;99.90
18450;DHT22;9354;50.194;7.690;2024-03-23T07:15:52;6.40;99.90
18450;DHT22;9354;50.194;7.690;2024-03-23T07:18:21;6.50;99.90
18450;DHT22;9354;50.194;7.690;2024-03-23T07:20:52;6.50;99.90
18450;DHT22;9354;50.194;7.690;2024-03-23T07:23:19;6.60;99.90
18450;DHT22;9354;50.194;7.690;2024-03-23T07:25:56;6.70;99.90
18450;DHT22;9354;50.194;7.690;2024-03-23T07:28:22;6.70;99.90
18450;DHT22;9354;50.194;7.690;2024-03-23T07:31:02;6.80;99.90
18450;DHT22;9354;50.194;7.690;2024-03-23T07:33:29;6.80;99.90
18450;DHT22;9354;50.194;7.690;2024-03-23T07:35:56;6.90;99.90
18450;DHT22;9354;50.194;7.690;2024-03-23T07:38:23;6.90;99.90
18450;DHT22;9354;50.194;7.690;2024-03-23T07:40:51;7.00;99.90
18450;DHT22;9354;50.194;7.690;2024-03-23T07:43:22;7.10;99.90
18450;DHT22;9354;50.194;7.690;2024-03-23T07:45:52;7.20;99.90
18450;DHT22;9354;50.194;7.690;2024-03-23T07:48:21;7.30;99.90
18450;DHT22;9354;50.194;7.690;2024-03-23T07:50:57;7.40;99.90
18450;DHT22;9354;50.194;7.690;2024-03-23T07:53:23;7.50;99.90
18450;DHT22;9354;50.194;7.690;2024-03-23T07:55:58;7.70;99.90
18450;DHT22;9354;50.194;7.690;2024-03-23T07:58:25;7.90;99.90
18450;DHT22;9354;50.194;7.690;2024-03-23T08:00:54;8.00;99.90
18450;DHT22;9354;50.194;7.690;2024-03-23T08:03:23;8.10;99.90
18450;DHT22;9354;50.194;7.690;2024-03-23T08:05:49;8.20;99.90
18450;DHT22;9354;50.194;7.690;2024-03-23T08:08:17;8.40;99.90
18450;DHT22;9354;50.194;7.690;2024-03-23T08:10:50;8.50;99.90
18450;DHT22;9354;50.194;7.690;2024-03-23T08:13:18;8.60;99.90
18450;DHT22;9354;50.194;7.690;2024-03-23T08:15:44;8.60;99.90
18450;DHT22;9354;50.194;7.690;2024-03-23T08:18:13;8.70;99.90
18450;DHT22;9354;50.194;7.690;2024-03-23T08:20:40;8.70;99.90
18450;DHT22;9354;50.194;7.690;2024-03-23T08:23:08;8.80;99.90
18450;DHT22;9354;50.194;7.690;2024-03-23T08:25:35;8.90;99.90
18450;DHT22;9354;50.194;7.690;2024-03-23T08:28:02;9.10;99.90
18450;DHT22;9354;50.194;7.690;2024-03-23T08:30:29;9.30;99.90
18450;DHT22;9354;50.194;7.690;2024-03-23T08:32:56;9.40;99.90
18450;DHT22;9354;50.194;7.690;2024-03-23T08:35:22;9.50;99.90
18450;DHT22;9354;50.194;7.690;2024-03-23T08:37:51;9.60;99.90
18450;DHT22;9354;50.194;7.690;2024-03-23T08:40:18;9.70;99.90
18450;DHT22;9354;50.194;7.690;2024-03-23T08:42:45;9.60;99.90
18450;DHT22;9354;50.194;7.690;2024-03-23T08:45:11;9.50;99.90
18450;DHT22;9354;50.194;7.690;2024-03-23T08:47:39;9.50;99.90
18450;DHT22;9354;50.194;7.690;2024-03-23T08:50:06;9.70;99.90
18450;DHT22;9354;50.194;7.690;2024-03-23T08:52:33;9.80;99.90
18450;DHT22;9354;50.194;7.690;2024-03-23T08:55:02;9.90;99.90
18450;DHT22;9354;50.194;7.690;2024-03-23T08:57:28;9.90;99.90
18450;DHT22;9354;50.194;7.690;2024-03-23T08:59:57;9.80;99.90
18450;DHT22;9354;50.194;7.690;2024-03-23T09:02:23;9.70;99.90
18450;DHT22;9354;50.194;7.690;2024-03-23T09:04:51;9.70;99.90
18450;DHT22;9354;50.194;7.690;2024-03-23T09:07:17;9.70;99.90
18450;DHT22;9354;50.194;7.690;2024-03-23T09:09:44;9.70;99.90
18450;DHT22;9354;50.194;7.690;2024-03-23T09:12:12;9.80;99.90
18450;DHT22;9354;50.194;7.690;2024-03-23T09:14:39;9.70;99.90
18450;DHT22;9354;50.194;7.690;2024-03-23T09:17:06;9.60;99.90
18450;DHT22;9354;50.194;7.690;2024-03-23T09:19:34;9.50;99.90
18450;DHT22;9354;50.194;7.690;2024-03-23T09:22:00;9.30;99.90
18450;DHT22;9354;50.194;7.690;2024-03-23T09:24:28;9.20;99.90
18450;DHT22;9354;50.194;7.690;2024-03-23T09:26:54;9.20;99.90
18450;DHT22;9354;50.194;7.690;2024-03-23T09:29:23;9.20;99.90
18450;DHT22;9354;50.194;7.690;2024-03-23T09:31:49;9.20;99.90
18450;DHT22;9354;50.194;7.690;2024-03-23T09:34:17;9.20;99.90
18450;DHT22;9354;50.194;7.690;2024-03-23T09:36:43;9.20;99.90
18450;DHT22;9354;50.194;7.690;2024-03-23T09:39:11;9.00;99.90
18450;DHT22;9354;50.194;7.690;2024-03-23T09:41:39;8.70;99.90
18450;DHT22;9354;50.194;7.690;2024-03-23T09:44:07;8.50;99.90
18450;DHT22;9354;50.194;7.690;2024-03-23T09:46:35;8.40;99.90
18450;DHT22;9354;50.194;7.690;2024-03-23T09:49:02;8.20;99.90
18450;DHT22;9354;50.194;7.690;2024-03-23T09:51:30;8.10;99.90
18450;DHT22;9354;50.194;7.690;2024-03-23T09:53:58;7.90;99.90
18450;DHT22;9354;50.194;7.690;2024-03-23T09:56:24;7.80;99.90
18450;DHT22;9354;50.194;7.690;2024-03-23T09:58:51;7.70;99.90
18450;DHT22;9354;50.194;7.690;2024-03-23T10:01:18;7.70;99.90
18450;DHT22;9354;50.194;7.690;2024-03-23T10:03:47;7.70;99.90
18450;DHT22;9354;50.194;7.690;2024-03-23T10:06:13;7.70;99.90
18450;DHT22;9354;50.194;7.690;2024-03-23T10:08:40;7.70;99.90
18450;DHT22;9354;50.194;7.690;2024-03-23T10:11:13;7.80;99.90
18450;DHT22;9354;50.194;7.690;2024-03-23T10:13:42;7.90;99.90
18450;DHT22;9354;50.194;7.690;2024-03-23T10:16:09;8.00;99.90
18450;DHT22;9354;50.194;7.690;2024-03-23T10:18:39;8.00;99.90
18450;DHT22;9354;50.194;7.690;2024-03-23T10:21:11;8.00;99.90
18450;DHT22;9354;50.194;7.690;2024-03-23T10:23:40;8.00;99.90
18450;DHT22;9354;50.194;7.690;2024-03-23T10:26:20;8.00;99.90
18450;DHT22;9354;50.194;7.690;2024-03-23T10:28:52;8.10;99.90
18450;DHT22;9354;50.194;7.690;2024-03-23T10:31:21;8.10;99.90
18450;DHT22;9354;50.194;7.690;2024-03-23T10:33:48;8.30;99.90
18450;DHT22;9354;50.194;7.690;2024-03-23T10:36:18;8.70;99.90
18450;DHT22;9354;50.194;7.690;2024-03-23T10:38:46;8.90;99.90
18450;DHT22;9354;50.194;7.690;2024-03-23T10:41:13;9.00;99.90
18450;DHT22;9354;50.194;7.690;2024-03-23T10:43:43;9.10;99.90
18450;DHT22;9354;50.194;7.690;2024-03-23T10:46:11;9.50;99.90
18450;DHT22;9354;50.194;7.690;2024-03-23T10:48:38;9.80;99.90
18450;DHT22;9354;50.194;7.690;2024-03-23T10:51:07;10.20;99.90
18450;DHT22;9354;50.194;7.690;2024-03-23T10:53:36;10.60;99.90
18450;DHT22;9354;50.194;7.690;2024-03-23T10:56:04;10.90;99.90
18450;DHT22;9354;50.194;7.690;2024-03-23T10:58:36;11.20;99.90
18450;DHT22;9354;50.194;7.690;2024-03-23T11:01:04;11.40;99.90
18450;DHT22;9354;50.194;7.690;2024-03-23T11:03:36;11.70;99.90
18450;DHT22;9354;50.194;7.690;2024-03-23T11:06:03;11.80;99.90
18450;DHT22;9354;50.194;7.690;2024-03-23T11:08:36;11.90;99.90
18450;DHT22;9354;50.194;7.690;2024-03-23T11:11:13;12.00;99.90
18450;DHT22;9354;50.194;7.690;2024-03-23T11:13:40;11.90;99.90
18450;DHT22;9354;50.194;7.690;2024-03-23T11:16:13;11.80;99.90
18450;DHT22;9354;50.194;7.690;2024-03-23T11:18:41;11.90;99.90
18450;DHT22;9354;50.194;7.690;2024-03-23T11:21:08;12.00;99.90
18450;DHT22;9354;50.194;7.690;2024-03-23T11:23:36;12.10;99.90
18450;DHT22;9354;50.194;7.690;2024-03-23T11:26:07;12.20;99.90
18450;DHT22;9354;50.194;7.690;2024-03-23T11:28:35;12.10;99.90
18450;DHT22;9354;50.194;7.690;2024-03-23T11:31:01;11.80;99.90
18450;DHT22;9354;50.194;7.690;2024-03-23T11:33:29;11.50;99.90
18450;DHT22;9354;50.194;7.690;2024-03-23T11:35:55;11.20;99.90
18450;DHT22;9354;50.194;7.690;2024-03-23T11:38:23;11.10;99.90
18450;DHT22;9354;50.194;7.690;2024-03-23T11:40:51;11.20;99.90
18450;DHT22;9354;50.194;7.690;2024-03-23T11:43:19;11.20;99.90
18450;DHT22;9354;50.194;7.690;2024-03-23T11:45:48;11.00;99.90
18450;DHT22;9354;50.194;7.690;2024-03-23T11:48:19;10.80;99.90
18450;DHT22;9354;50.194;7.690;2024-03-23T11:50:46;10.50;99.90
18450;DHT22;9354;50.194;7.690;2024-03-23T11:53:15;10.30;99.90
18450;DHT22;9354;50.194;7.690;2024-03-23T11:55:43;10.10;99.90
18450;DHT22;9354;50.194;7.690;2024-03-23T11:58:13;10.00;99.90
18450;DHT22;9354;50.194;7.690;2024-03-23T12:00:40;10.00;99.90
18450;DHT22;9354;50.194;7.690;2024-03-23T12:03:08;9.90;99.90
18450;DHT22;9354;50.194;7.690;2024-03-23T12:05:37;9.70;99.90
18450;DHT22;9354;50.194;7.690;2024-03-23T12:08:18;9.50;99.90
18450;DHT22;9354;50.194;7.690;2024-03-23T12:10:47;9.30;99.90
18450;DHT22;9354;50.194;7.690;2024-03-23T12:13:21;9.00;99.90
18450;DHT22;9354;50.194;7.690;2024-03-23T12:15:49;8.60;99.90
18450;DHT22;9354;50.194;7.690;2024-03-23T12:18:17;8.10;99.90
18450;DHT22;9354;50.194;7.690;2024-03-23T12:20:43;7.70;99.90
18450;DHT22;9354;50.194;7.690;2024-03-23T12:23:11;7.50;99.90
18450;DHT22;9354;50.194;7.690;2024-03-23T12:25:39;7.30;99.90
18450;DHT22;9354;50.194;7.690;2024-03-23T12:28:07;7.20;99.90
18450;DHT22;9354;50.194;7.690;2024-03-23T12:30:39;7.10;99.90
18450;DHT22;9354;50.194;7.690;2024-03-23T12:33:07;7.10;99.90
18450;DHT22;9354;50.194;7.690;2024-03-23T12:35:33;7.00;99.90
18450;DHT22;9354;50.194;7.690;2024-03-23T12:38:01;7.00;99.90
18450;DHT22;9354;50.194;7.690;2024-03-23T12:40:27;6.90;99.90
18450;DHT22;9354;50.194;7.690;2024-03-23T12:42:55;6.70;99.90
18450;DHT22;9354;50.194;7.690;2024-03-23T12:45:22;6.70;99.90
18450;DHT22;9354;50.194;7.690;2024-03-23T12:47:51;6.70;99.90
18450;DHT22;9354;50.194;7.690;2024-03-23T12:50:19;6.70;99.90
18450;DHT22;9354;50.194;7.690;2024-03-23T12:52:47;6.80;99.90
18450;DHT22;9354;50.194;7.690;2024-03-23T12:55:13;6.90;99.90
18450;DHT22;9354;50.194;7.690;2024-03-23T12:57:41;7.00;99.90
18450;DHT22;9354;50.194;7.690;2024-03-23T13:00:08;7.10;99.90
18450;DHT22;9354;50.194;7.690;2024-03-23T13:02:37;7.10;99.90
18450;DHT22;9354;50.194;7.690;2024-03-23T13:05:07;7.10;99.90
18450;DHT22;9354;50.194;7.690;2024-03-23T13:07:35;7.00;99.90
18450;DHT22;9354;50.194;7.690;2024-03-23T13:10:04;6.90;99.90
18450;DHT22;9354;50.194;7.690;2024-03-23T13:12:32;6.80;99.90
18450;DHT22;9354;50.194;7.690;2024-03-23T13:14:58;6.80;99.90
18450;DHT22;9354;50.194;7.690;2024-03-23T13:17:26;7.00;99.90
18450;DHT22;9354;50.194;7.690;2024-03-23T13:19:53;7.20;99.90
18450;DHT22;9354;50.194;7.690;2024-03-23T13:22:22;7.40;99.90
18450;DHT22;9354;50.194;7.690;2024-03-23T13:24:49;7.60;99.90
18450;DHT22;9354;50.194;7.690;2024-03-23T13:27:17;8.00;99.90
18450;DHT22;9354;50.194;7.690;2024-03-23T13:29:43;8.30;99.90
18450;DHT22;9354;50.194;7.690;2024-03-23T13:32:12;8.60;99.90
18450;DHT22;9354;50.194;7.690;2024-03-23T13:34:38;9.00;99.90
18450;DHT22;9354;50.194;7.690;2024-03-23T13:37:06;9.40;99.90
18450;DHT22;9354;50.194;7.690;2024-03-23T13:39:37;9.70;99.90
18450;DHT22;9354;50.194;7.690;2024-03-23T13:42:04;10.10;99.90
18450;DHT22;9354;50.194;7.690;2024-03-23T13:44:31;10.40;99.90
18450;DHT22;9354;50.194;7.690;2024-03-23T13:46:58;10.60;99.90
18450;DHT22;9354;50.194;7.690;2024-03-23T13:49:26;10.60;99.90
18450;DHT22;9354;50.194;7.690;2024-03-23T13:51:54;10.70;99.90
18450;DHT22;9354;50.194;7.690;2024-03-23T13:54:21;10.80;99.90
18450;DHT22;9354;50.194;7.690;2024-03-23T13:56:52;11.00;99.90
18450;DHT22;9354;50.194;7.690;2024-03-23T13:59:19;11.10;99.90
18450;DHT22;9354;50.194;7.690;2024-03-23T14:01:47;11.20;99.90
18450;DHT22;9354;50.194;7.690;2024-03-23T14:04:13;11.30;99.90
18450;DHT22;9354;50.194;7.690;2024-03-23T14:06:42;11.30;99.90
18450;DHT22;9354;50.194;7.690;2024-03-23T14:09:11;11.20;99.90
18450;DHT22;9354;50.194;7.690;2024-03-23T14:11:38;11.30;99.90
18450;DHT22;9354;50.194;7.690;2024-03-23T14:14:07;11.30;99.90
18450;DHT22;9354;50.194;7.690;2024-03-23T14:16:35;11.50;99.90
18450;DHT22;9354;50.194;7.690;2024-03-23T14:19:01;11.50;99.90
18450;DHT22;9354;50.194;7.690;2024-03-23T14:21:31;11.30;99.90
18450;DHT22;9354;50.194;7.690;2024-03-23T14:23:57;10.90;99.90
18450;DHT22;9354;50.194;7.690;2024-03-23T14:26:25;10.30;99.90
18450;DHT22;9354;50.194;7.690;2024-03-23T14:28:51;9.60;99.90
18450;DHT22;9354;50.194;7.690;2024-03-23T14:31:20;8.90;99.90
18450;DHT22;9354;50.194;7.690;2024-03-23T14:33:46;8.20;99.90
18450;DHT22;9354;50.194;7.690;2024-03-23T14:36:14;7.50;99.90
18450;DHT22;9354;50.194;7.690;2024-03-23T14:38:41;7.10;99.90
18450;DHT22;9354;50.194;7.690;2024-03-23T14:41:08;6.60;99.90
18450;DHT22;9354;50.194;7.690;2024-03-23T14:43:34;6.40;99.90
18450;DHT22;9354;50.194;7.690;2024-03-23T14:46:09;6.20;99.90
18450;DHT22;9354;50.194;7.690;2024-03-23T14:48:37;6.10;99.90
18450;DHT22;9354;50.194;7.690;2024-03-23T14:51:05;6.10;99.90
18450;DHT22;9354;50.194;7.690;2024-03-23T14:53:32;6.00;99.90
18450;DHT22;9354;50.194;7.690;2024-03-23T14:55:59;6.00;99.90
18450;DHT22;9354;50.194;7.690;2024-03-23T14:58:27;6.10;99.90
18450;DHT22;9354;50.194;7.690;2024-03-23T15:01:00;6.10;99.90
18450;DHT22;9354;50.194;7.690;2024-03-23T15:03:26;6.10;99.90
18450;DHT22;9354;50.194;7.690;2024-03-23T15:05:56;6.10;99.90
18450;DHT22;9354;50.194;7.690;2024-03-23T15:08:22;6.00;99.90
18450;DHT22;9354;50.194;7.690;2024-03-23T15:10:50;5.90;99.90
18450;DHT22;9354;50.194;7.690;2024-03-23T15:13:17;5.90;99.90
18450;DHT22;9354;50.194;7.690;2024-03-23T15:15:44;6.00;99.90
18450;DHT22;9354;50.194;7.690;2024-03-23T15:18:11;6.30;99.90
18450;DHT22;9354;50.194;7.690;2024-03-23T15:20:41;6.60;99.90
18450;DHT22;9354;50.194;7.690;2024-03-23T15:23:09;6.90;99.90
18450;DHT22;9354;50.194;7.690;2024-03-23T15:25:36;7.10;99.90
18450;DHT22;9354;50.194;7.690;2024-03-23T15:28:03;7.30;99.90
18450;DHT22;9354;50.194;7.690;2024-03-23T15:30:30;7.50;99.90
18450;DHT22;9354;50.194;7.690;2024-03-23T15:32:57;7.50;99.90
18450;DHT22;9354;50.194;7.690;2024-03-23T15:35:24;7.60;99.90
18450;DHT22;9354;50.194;7.690;2024-03-23T15:37:50;7.70;99.90
18450;DHT22;9354;50.194;7.690;2024-03-23T15:40:19;7.80;99.90
18450;DHT22;9354;50.194;7.690;2024-03-23T15:42:46;7.90;99.90
18450;DHT22;9354;50.194;7.690;2024-03-23T15:45:13;7.90;99.90
18450;DHT22;9354;50.194;7.690;2024-03-23T15:47:39;7.90;99.90
18450;DHT22;9354;50.194;7.690;2024-03-23T15:50:08;7.80;99.90
18450;DHT22;9354;50.194;7.690;2024-03-23T15:52:35;7.70;99.90
18450;DHT22;9354;50.194;7.690;2024-03-23T15:55:03;7.70;99.90
18450;DHT22;9354;50.194;7.690;2024-03-23T15:57:34;7.60;99.90
18450;DHT22;9354;50.194;7.690;2024-03-23T16:00:02;7.60;99.90
18450;DHT22;9354;50.194;7.690;2024-03-23T16:02:28;7.50;99.90
18450;DHT22;9354;50.194;7.690;2024-03-23T16:04:56;7.40;99.90
18450;DHT22;9354;50.194;7.690;2024-03-23T16:07:24;7.40;99.90
18450;DHT22;9354;50.194;7.690;2024-03-23T16:09:51;7.40;99.90
18450;DHT22;9354;50.194;7.690;2024-03-23T16:12:18;7.40;99.90
18450;DHT22;9354;50.194;7.690;2024-03-23T16:14:46;7.50;99.90
18450;DHT22;9354;50.194;7.690;2024-03-23T16:17:13;7.60;99.90
18450;DHT22;9354;50.194;7.690;2024-03-23T16:19:40;7.60;99.90
18450;DHT22;9354;50.194;7.690;2024-03-23T16:22:07;7.60;99.90
18450;DHT22;9354;50.194;7.690;2024-03-23T16:24:34;7.60;99.90
18450;DHT22;9354;50.194;7.690;2024-03-23T16:27:01;7.50;99.90
18450;DHT22;9354;50.194;7.690;2024-03-23T16:29:28;7.40;99.90
18450;DHT22;9354;50.194;7.690;2024-03-23T16:31:56;7.20;99.90
18450;DHT22;9354;50.194;7.690;2024-03-23T16:34:26;6.70;99.90
18450;DHT22;9354;50.194;7.690;2024-03-23T16:36:53;6.30;99.90
18450;DHT22;9354;50.194;7.690;2024-03-23T16:39:21;5.90;99.90
18450;DHT22;9354;50.194;7.690;2024-03-23T16:41:47;5.60;99.90
18450;DHT22;9354;50.194;7.690;2024-03-23T16:44:14;5.50;99.90
18450;DHT22;9354;50.194;7.690;2024-03-23T16:46:41;5.40;99.90
18450;DHT22;9354;50.194;7.690;2024-03-23T16:49:11;5.40;99.90
18450;DHT22;9354;50.194;7.690;2024-03-23T16:51:38;5.40;99.90
18450;DHT22;9354;50.194;7.690;2024-03-23T16:54:05;5.40;99.90
18450;DHT22;9354;50.194;7.690;2024-03-23T16:56:32;5.50;99.90